TimeMST,TemperatureF,Dew PointF,Humidity,Sea Level PressureIn,VisibilityMPH,Wind Direction,Wind SpeedMPH,Gust SpeedMPH,PrecipitationIn,Events,Conditions,WindDirDegrees,DateUTC
12:55 AM,25.0,23.0,92,29.88,10.0,NNW,4.6,-,N/A,,Clear,340,2013-03-08 07:55:00
1:55 AM,27.0,24.1,89,29.86,10.0,NNW,5.8,-,N/A,,Clear,330,2013-03-08 08:55:00
2:55 AM,27.0,24.1,89,29.83,10.0,North,8.1,-,N/A,,Clear,360,2013-03-08 09:55:00
3:55 AM,28.0,25.0,88,29.83,10.0,NW,4.6,-,N/A,,Clear,320,2013-03-08 10:55:00
4:55 AM,24.1,21.9,91,29.88,10.0,NNW,3.5,-,N/A,,Clear,340,2013-03-08 11:55:00
5:55 AM,27.0,24.1,89,29.89,10.0,NW,4.6,-,N/A,,Clear,310,2013-03-08 12:55:00
6:55 AM,32.0,28.0,85,29.88,10.0,NNW,8.1,-,N/A,,Clear,330,2013-03-08 13:55:00
7:55 AM,35.1,30.0,82,29.90,10.0,NNW,13.8,-,N/A,,Clear,340,2013-03-08 14:55:00
8:55 AM,39.0,30.0,70,29.91,10.0,NW,11.5,-,N/A,,Clear,320,2013-03-08 15:55:00
9:55 AM,43.0,30.9,62,29.86,10.0,NW,12.7,-,N/A,,Clear,310,2013-03-08 16:55:00
10:55 AM,48.0,32.0,54,29.84,10.0,Variable,6.9,-,N/A,,Clear,0,2013-03-08 17:55:00
11:55 AM,48.9,30.9,50,29.83,10.0,ENE,6.9,-,N/A,,Partly Cloudy,60,2013-03-08 18:55:00
12:55 PM,48.9,33.1,54,29.78,10.0,North,10.4,-,N/A,,Clear,350,2013-03-08 19:55:00
1:55 PM,48.0,34.0,58,29.76,10.0,Variable,5.8,-,N/A,,Clear,0,2013-03-08 20:55:00
2:55 PM,48.9,34.0,56,29.74,10.0,NNE,5.8,-,N/A,,Clear,20,2013-03-08 21:55:00
3:55 PM,51.1,32.0,48,29.70,10.0,ENE,11.5,-,N/A,,Clear,60,2013-03-08 22:55:00
4:55 PM,50.0,34.0,54,29.72,10.0,NE,9.2,-,N/A,,Clear,50,2013-03-08 23:55:00
5:55 PM,41.0,33.1,73,29.74,10.0,NNE,9.2,-,N/A,,Clear,30,2013-03-09 00:55:00
6:55 PM,41.0,32.0,70,29.67,10.0,NE,9.2,-,N/A,,Clear,40,2013-03-09 01:55:00
7:55 PM,37.0,32.0,82,29.70,10.0,North,5.8,-,N/A,,Clear,360,2013-03-09 02:55:00
8:55 PM,36.0,32.0,86,29.70,10.0,NW,9.2,-,N/A,,Scattered Clouds,320,2013-03-09 03:55:00
9:55 PM,35.1,30.9,85,29.66,10.0,North,4.6,-,N/A,,Mostly Cloudy,350,2013-03-09 04:55:00
10:55 PM,33.1,30.9,92,29.64,9.0,West,11.5,-,N/A,,Clear,280,2013-03-09 05:55:00
11:55 PM,33.1,30.9,92,29.57,10.0,NNE,10.4,-,N/A,,Clear,20,2013-03-09 06:55:00